sensor_id;sensor_type;location;lat;lon;timestamp;temperature;humidity
10538;DHT22;5317;49.048;8.468;2022-10-16T00:01:41;20.00;91.20
10538;DHT22;5317;49.048;8.468;2022-10-16T00:04:09;20.00;91.20
10538;DHT22;5317;49.048;8.468;2022-10-16T00:06:36;20.00;91.20
10538;DHT22;5317;49.048;8.468;2022-10-16T00:09:04;20.00;91.30
10538;DHT22;5317;49.048;8.468;2022-10-16T00:11:33;20.00;91.30
10538;DHT22;5317;49.048;8.468;2022-10-16T00:14:06;20.00;91.40
10538;DHT22;5317;49.048;8.468;2022-10-16T00:16:34;20.00;91.40
10538;DHT22;5317;49.048;8.468;2022-10-16T00:19:01;20.00;91.40
10538;DHT22;5317;49.048;8.468;2022-10-16T00:21:30;20.00;91.40
10538;DHT22;5317;49.048;8.468;2022-10-16T00:24:00;20.00;91.40
10538;DHT22;5317;49.048;8.468;2022-10-16T00:26:31;20.00;91.50
10538;DHT22;5317;49.048;8.468;2022-10-16T00:29:00;19.90;91.50
10538;DHT22;5317;49.048;8.468;2022-10-16T00:31:29;20.00;91.50
10538;DHT22;5317;49.048;8.468;2022-10-16T00:33:56;19.90;91.60
10538;DHT22;5317;49.048;8.468;2022-10-16T00:36:25;19.90;91.60
10538;DHT22;5317;49.048;8.468;2022-10-16T00:38:54;19.90;91.60
10538;DHT22;5317;49.048;8.468;2022-10-16T00:41:24;20.00;91.70
10538;DHT22;5317;49.048;8.468;2022-10-16T00:43:54;20.00;91.60
10538;DHT22;5317;49.048;8.468;2022-10-16T00:46:24;20.00;91.60
10538;DHT22;5317;49.048;8.468;2022-10-16T00:48:56;19.90;91.50
10538;DHT22;5317;49.048;8.468;2022-10-16T00:51:31;19.90;91.60
10538;DHT22;5317;49.048;8.468;2022-10-16T00:53:59;19.90;91.60
10538;DHT22;5317;49.048;8.468;2022-10-16T00:56:29;19.90;91.60
10538;DHT22;5317;49.048;8.468;2022-10-16T00:58:56;19.90;91.60
10538;DHT22;5317;49.048;8.468;2022-10-16T01:01:26;19.90;91.70
10538;DHT22;5317;49.048;8.468;2022-10-16T01:03:54;19.90;91.70
10538;DHT22;5317;49.048;8.468;2022-10-16T01:06:24;19.90;91.80
10538;DHT22;5317;49.048;8.468;2022-10-16T01:09:07;19.90;91.80
10538;DHT22;5317;49.048;8.468;2022-10-16T01:11:45;19.90;91.90
10538;DHT22;5317;49.048;8.468;2022-10-16T01:14:24;19.90;91.90
10538;DHT22;5317;49.048;8.468;2022-10-16T01:17:03;19.90;91.90
10538;DHT22;5317;49.048;8.468;2022-10-16T01:19:57;19.90;91.90
10538;DHT22;5317;49.048;8.468;2022-10-16T01:22:39;19.90;92.00
10538;DHT22;5317;49.048;8.468;2022-10-16T01:25:22;19.90;92.00
10538;DHT22;5317;49.048;8.468;2022-10-16T01:27:58;19.90;92.00
10538;DHT22;5317;49.048;8.468;2022-10-16T01:30:31;19.90;92.00
10538;DHT22;5317;49.048;8.468;2022-10-16T01:33:03;19.90;91.90
10538;DHT22;5317;49.048;8.468;2022-10-16T01:35:36;19.90;92.00
10538;DHT22;5317;49.048;8.468;2022-10-16T01:38:12;19.90;92.00
10538;DHT22;5317;49.048;8.468;2022-10-16T01:40:47;19.90;92.00
10538;DHT22;5317;49.048;8.468;2022-10-16T01:43:20;19.80;92.00
10538;DHT22;5317;49.048;8.468;2022-10-16T01:45:52;19.80;92.00
10538;DHT22;5317;49.048;8.468;2022-10-16T01:48:21;19.80;92.00
10538;DHT22;5317;49.048;8.468;2022-10-16T01:50:57;19.80;92.00
10538;DHT22;5317;49.048;8.468;2022-10-16T01:53:28;19.80;91.90
10538;DHT22;5317;49.048;8.468;2022-10-16T01:55:58;19.80;91.90
10538;DHT22;5317;49.048;8.468;2022-10-16T01:58:29;19.80;91.80
10538;DHT22;5317;49.048;8.468;2022-10-16T02:01:02;19.90;91.80
10538;DHT22;5317;49.048;8.468;2022-10-16T02:03:32;19.80;91.80
10538;DHT22;5317;49.048;8.468;2022-10-16T02:06:01;19.90;91.80
10538;DHT22;5317;49.048;8.468;2022-10-16T02:08:30;19.90;91.80
10538;DHT22;5317;49.048;8.468;2022-10-16T02:10:58;19.80;91.80
10538;DHT22;5317;49.048;8.468;2022-10-16T02:13:33;19.80;91.70
10538;DHT22;5317;49.048;8.468;2022-10-16T02:16:05;19.80;91.70
10538;DHT22;5317;49.048;8.468;2022-10-16T02:18:32;19.80;91.70
10538;DHT22;5317;49.048;8.468;2022-10-16T02:21:02;19.80;91.70
10538;DHT22;5317;49.048;8.468;2022-10-16T02:23:45;19.80;91.70
10538;DHT22;5317;49.048;8.468;2022-10-16T02:26:23;19.80;91.70
10538;DHT22;5317;49.048;8.468;2022-10-16T02:29:00;19.70;91.70
10538;DHT22;5317;49.048;8.468;2022-10-16T02:31:34;19.70;91.80
10538;DHT22;5317;49.048;8.468;2022-10-16T02:34:06;19.70;91.60
10538;DHT22;5317;49.048;8.468;2022-10-16T02:36:38;19.70;91.70
10538;DHT22;5317;49.048;8.468;2022-10-16T02:39:08;19.70;91.80
10538;DHT22;5317;49.048;8.468;2022-10-16T02:41:36;19.70;91.80
10538;DHT22;5317;49.048;8.468;2022-10-16T02:44:07;19.60;91.70
10538;DHT22;5317;49.048;8.468;2022-10-16T02:46:34;19.60;91.80
10538;DHT22;5317;49.048;8.468;2022-10-16T02:49:02;19.60;91.90
10538;DHT22;5317;49.048;8.468;2022-10-16T02:51:29;19.50;92.00
10538;DHT22;5317;49.048;8.468;2022-10-16T02:53:57;19.50;92.00
10538;DHT22;5317;49.048;8.468;2022-10-16T02:56:24;19.60;91.90
10538;DHT22;5317;49.048;8.468;2022-10-16T02:58:51;19.50;91.80
10538;DHT22;5317;49.048;8.468;2022-10-16T03:01:19;19.60;91.80
10538;DHT22;5317;49.048;8.468;2022-10-16T03:03:46;19.60;91.80
10538;DHT22;5317;49.048;8.468;2022-10-16T03:06:13;19.60;91.70
10538;DHT22;5317;49.048;8.468;2022-10-16T03:08:41;19.50;91.70
10538;DHT22;5317;49.048;8.468;2022-10-16T03:11:08;19.50;91.70
10538;DHT22;5317;49.048;8.468;2022-10-16T03:13:35;19.50;91.70
10538;DHT22;5317;49.048;8.468;2022-10-16T03:16:02;19.50;91.80
10538;DHT22;5317;49.048;8.468;2022-10-16T03:18:31;19.50;91.70
10538;DHT22;5317;49.048;8.468;2022-10-16T03:20:58;19.50;91.70
10538;DHT22;5317;49.048;8.468;2022-10-16T03:23:26;19.50;91.80
10538;DHT22;5317;49.048;8.468;2022-10-16T03:25:53;19.50;91.80
10538;DHT22;5317;49.048;8.468;2022-10-16T03:28:20;19.50;91.80
10538;DHT22;5317;49.048;8.468;2022-10-16T03:30:47;19.50;91.80
10538;DHT22;5317;49.048;8.468;2022-10-16T03:33:15;19.50;91.70
10538;DHT22;5317;49.048;8.468;2022-10-16T03:35:50;19.50;91.70
10538;DHT22;5317;49.048;8.468;2022-10-16T03:38:19;19.50;91.70
10538;DHT22;5317;49.048;8.468;2022-10-16T03:40:46;19.50;91.70
10538;DHT22;5317;49.048;8.468;2022-10-16T03:43:14;19.50;91.70
10538;DHT22;5317;49.048;8.468;2022-10-16T03:45:41;19.50;91.70
10538;DHT22;5317;49.048;8.468;2022-10-16T03:48:08;19.50;91.80
10538;DHT22;5317;49.048;8.468;2022-10-16T03:50:35;19.50;91.80
10538;DHT22;5317;49.048;8.468;2022-10-16T03:53:04;19.50;91.90
10538;DHT22;5317;49.048;8.468;2022-10-16T03:55:31;19.40;91.90
10538;DHT22;5317;49.048;8.468;2022-10-16T03:57:58;19.30;91.90
10538;DHT22;5317;49.048;8.468;2022-10-16T04:00:25;19.30;92.00
10538;DHT22;5317;49.048;8.468;2022-10-16T04:02:53;19.20;92.20
10538;DHT22;5317;49.048;8.468;2022-10-16T04:05:20;19.20;92.20
10538;DHT22;5317;49.048;8.468;2022-10-16T04:07:47;19.20;92.20
10538;DHT22;5317;49.048;8.468;2022-10-16T04:10:16;19.20;92.20
10538;DHT22;5317;49.048;8.468;2022-10-16T04:12:43;19.20;92.30
10538;DHT22;5317;49.048;8.468;2022-10-16T04:15:10;19.20;92.20
10538;DHT22;5317;49.048;8.468;2022-10-16T04:17:38;19.30;92.10
10538;DHT22;5317;49.048;8.468;2022-10-16T04:20:06;19.30;92.00
10538;DHT22;5317;49.048;8.468;2022-10-16T04:22:33;19.30;92.00
10538;DHT22;5317;49.048;8.468;2022-10-16T04:25:00;19.30;92.00
10538;DHT22;5317;49.048;8.468;2022-10-16T04:27:29;19.40;92.00
10538;DHT22;5317;49.048;8.468;2022-10-16T04:29:56;19.30;92.00
10538;DHT22;5317;49.048;8.468;2022-10-16T04:32:24;19.40;92.00
10538;DHT22;5317;49.048;8.468;2022-10-16T04:34:51;19.40;92.30
10538;DHT22;5317;49.048;8.468;2022-10-16T04:37:23;19.40;92.00
10538;DHT22;5317;49.048;8.468;2022-10-16T04:39:51;19.40;92.00
10538;DHT22;5317;49.048;8.468;2022-10-16T04:42:21;19.40;92.00
10538;DHT22;5317;49.048;8.468;2022-10-16T04:44:50;19.40;92.00
10538;DHT22;5317;49.048;8.468;2022-10-16T04:47:17;19.30;92.00
10538;DHT22;5317;49.048;8.468;2022-10-16T04:49:44;19.20;92.10
10538;DHT22;5317;49.048;8.468;2022-10-16T04:52:13;19.30;92.20
10538;DHT22;5317;49.048;8.468;2022-10-16T04:54:40;19.30;92.20
10538;DHT22;5317;49.048;8.468;2022-10-16T04:57:07;19.30;92.10
10538;DHT22;5317;49.048;8.468;2022-10-16T04:59:35;19.30;92.10
10538;DHT22;5317;49.048;8.468;2022-10-16T05:02:04;19.30;92.10
10538;DHT22;5317;49.048;8.468;2022-10-16T05:04:31;19.30;92.10
10538;DHT22;5317;49.048;8.468;2022-10-16T05:06:58;19.30;92.00
10538;DHT22;5317;49.048;8.468;2022-10-16T05:09:25;19.30;92.10
10538;DHT22;5317;49.048;8.468;2022-10-16T05:11:52;19.20;92.10
10538;DHT22;5317;49.048;8.468;2022-10-16T05:14:19;19.30;92.20
10538;DHT22;5317;49.048;8.468;2022-10-16T05:16:46;19.20;92.10
10538;DHT22;5317;49.048;8.468;2022-10-16T05:19:16;19.20;92.20
10538;DHT22;5317;49.048;8.468;2022-10-16T05:21:43;19.20;92.20
10538;DHT22;5317;49.048;8.468;2022-10-16T05:24:10;19.20;92.10
10538;DHT22;5317;49.048;8.468;2022-10-16T05:26:37;19.20;92.10
10538;DHT22;5317;49.048;8.468;2022-10-16T05:29:04;19.20;92.00
10538;DHT22;5317;49.048;8.468;2022-10-16T05:31:31;19.20;92.10
10538;DHT22;5317;49.048;8.468;2022-10-16T05:33:59;19.20;92.00
10538;DHT22;5317;49.048;8.468;2022-10-16T05:36:30;19.10;92.00
10538;DHT22;5317;49.048;8.468;2022-10-16T05:38:57;19.10;92.20
10538;DHT22;5317;49.048;8.468;2022-10-16T05:41:24;19.10;92.10
10538;DHT22;5317;49.048;8.468;2022-10-16T05:43:52;19.10;92.10
10538;DHT22;5317;49.048;8.468;2022-10-16T05:46:19;19.20;92.10
10538;DHT22;5317;49.048;8.468;2022-10-16T05:48:47;19.20;92.10
10538;DHT22;5317;49.048;8.468;2022-10-16T05:51:14;19.10;92.10
10538;DHT22;5317;49.048;8.468;2022-10-16T05:53:43;19.10;92.10
10538;DHT22;5317;49.048;8.468;2022-10-16T05:56:11;19.10;92.10
10538;DHT22;5317;49.048;8.468;2022-10-16T05:58:39;19.20;92.20
10538;DHT22;5317;49.048;8.468;2022-10-16T06:01:09;19.10;92.20
10538;DHT22;5317;49.048;8.468;2022-10-16T06:03:38;19.10;92.10
10538;DHT22;5317;49.048;8.468;2022-10-16T06:06:11;19.10;92.10
10538;DHT22;5317;49.048;8.468;2022-10-16T06:08:40;19.10;92.20
10538;DHT22;5317;49.048;8.468;2022-10-16T06:11:11;19.00;92.20
10538;DHT22;5317;49.048;8.468;2022-10-16T06:13:39;19.00;92.30
10538;DHT22;5317;49.048;8.468;2022-10-16T06:16:09;18.90;92.40
10538;DHT22;5317;49.048;8.468;2022-10-16T06:18:39;18.90;92.30
10538;DHT22;5317;49.048;8.468;2022-10-16T06:21:10;18.90;92.30
10538;DHT22;5317;49.048;8.468;2022-10-16T06:23:40;19.00;92.30
10538;DHT22;5317;49.048;8.468;2022-10-16T06:26:11;19.00;92.30
10538;DHT22;5317;49.048;8.468;2022-10-16T06:28:40;19.00;92.20
10538;DHT22;5317;49.048;8.468;2022-10-16T06:31:09;19.00;92.10
10538;DHT22;5317;49.048;8.468;2022-10-16T06:33:38;19.10;92.10
10538;DHT22;5317;49.048;8.468;2022-10-16T06:36:08;19.10;92.00
10538;DHT22;5317;49.048;8.468;2022-10-16T06:38:40;19.10;92.00
10538;DHT22;5317;49.048;8.468;2022-10-16T06:41:13;19.20;92.00
10538;DHT22;5317;49.048;8.468;2022-10-16T06:43:45;19.10;92.00
10538;DHT22;5317;49.048;8.468;2022-10-16T06:46:14;19.10;92.00
10538;DHT22;5317;49.048;8.468;2022-10-16T06:48:43;19.10;91.90
10538;DHT22;5317;49.048;8.468;2022-10-16T06:51:12;19.10;92.00
10538;DHT22;5317;49.048;8.468;2022-10-16T06:53:43;19.00;92.10
10538;DHT22;5317;49.048;8.468;2022-10-16T06:56:14;18.90;92.20
10538;DHT22;5317;49.048;8.468;2022-10-16T06:58:44;18.90;92.40
10538;DHT22;5317;49.048;8.468;2022-10-16T07:01:16;18.90;92.60
10538;DHT22;5317;49.048;8.468;2022-10-16T07:03:45;18.90;92.80
10538;DHT22;5317;49.048;8.468;2022-10-16T07:06:15;18.90;92.60
10538;DHT22;5317;49.048;8.468;2022-10-16T07:08:46;18.90;92.60
10538;DHT22;5317;49.048;8.468;2022-10-16T07:11:26;19.00;92.70
10538;DHT22;5317;49.048;8.468;2022-10-16T07:13:54;19.00;92.70
10538;DHT22;5317;49.048;8.468;2022-10-16T07:16:23;19.10;92.70
10538;DHT22;5317;49.048;8.468;2022-10-16T07:18:53;19.10;92.50
10538;DHT22;5317;49.048;8.468;2022-10-16T07:21:25;19.20;92.50
10538;DHT22;5317;49.048;8.468;2022-10-16T07:23:55;19.30;92.40
10538;DHT22;5317;49.048;8.468;2022-10-16T07:26:24;19.40;92.50
10538;DHT22;5317;49.048;8.468;2022-10-16T07:28:54;19.40;92.40
10538;DHT22;5317;49.048;8.468;2022-10-16T07:31:21;19.50;92.30
10538;DHT22;5317;49.048;8.468;2022-10-16T07:33:49;19.60;92.30
10538;DHT22;5317;49.048;8.468;2022-10-16T07:36:18;19.70;92.10
10538;DHT22;5317;49.048;8.468;2022-10-16T07:38:47;19.80;92.10
10538;DHT22;5317;49.048;8.468;2022-10-16T07:41:16;19.90;92.00
10538;DHT22;5317;49.048;8.468;2022-10-16T07:43:48;19.90;92.00
10538;DHT22;5317;49.048;8.468;2022-10-16T07:46:16;20.00;91.70
10538;DHT22;5317;49.048;8.468;2022-10-16T07:48:45;20.10;91.60
10538;DHT22;5317;49.048;8.468;2022-10-16T07:51:14;20.10;91.50
10538;DHT22;5317;49.048;8.468;2022-10-16T07:53:46;20.20;91.60
10538;DHT22;5317;49.048;8.468;2022-10-16T07:56:14;20.10;91.60
10538;DHT22;5317;49.048;8.468;2022-10-16T07:58:43;20.10;91.70
10538;DHT22;5317;49.048;8.468;2022-10-16T08:01:13;20.10;91.70
10538;DHT22;5317;49.048;8.468;2022-10-16T08:03:42;20.10;91.80
10538;DHT22;5317;49.048;8.468;2022-10-16T08:06:10;20.10;91.90
10538;DHT22;5317;49.048;8.468;2022-10-16T08:08:40;20.10;91.90
10538;DHT22;5317;49.048;8.468;2022-10-16T08:11:07;20.20;91.90
10538;DHT22;5317;49.048;8.468;2022-10-16T08:13:35;20.30;91.60
10538;DHT22;5317;49.048;8.468;2022-10-16T08:16:03;20.30;91.60
10538;DHT22;5317;49.048;8.468;2022-10-16T08:18:35;20.40;91.30
10538;DHT22;5317;49.048;8.468;2022-10-16T08:21:04;20.50;91.30
10538;DHT22;5317;49.048;8.468;2022-10-16T08:23:32;20.50;91.10
10538;DHT22;5317;49.048;8.468;2022-10-16T08:26:03;20.70;91.30
10538;DHT22;5317;49.048;8.468;2022-10-16T08:28:32;20.80;90.80
10538;DHT22;5317;49.048;8.468;2022-10-16T08:31:08;20.80;90.60
10538;DHT22;5317;49.048;8.468;2022-10-16T08:33:38;20.80;90.60
10538;DHT22;5317;49.048;8.468;2022-10-16T08:36:07;20.80;90.70
10538;DHT22;5317;49.048;8.468;2022-10-16T08:38:36;20.90;90.60
10538;DHT22;5317;49.048;8.468;2022-10-16T08:41:21;20.90;90.70
10538;DHT22;5317;49.048;8.468;2022-10-16T08:47:10;21.10;90.60
10538;DHT22;5317;49.048;8.468;2022-10-16T08:49:53;21.10;90.50
10538;DHT22;5317;49.048;8.468;2022-10-16T08:52:28;21.20;90.30
10538;DHT22;5317;49.048;8.468;2022-10-16T08:54:57;21.10;89.90
10538;DHT22;5317;49.048;8.468;2022-10-16T08:57:27;21.10;90.10
10538;DHT22;5317;49.048;8.468;2022-10-16T09:00:00;21.20;90.10
10538;DHT22;5317;49.048;8.468;2022-10-16T09:02:43;21.30;89.70
10538;DHT22;5317;49.048;8.468;2022-10-16T09:05:23;21.40;89.30
10538;DHT22;5317;49.048;8.468;2022-10-16T09:08:18;21.50;89.10
10538;DHT22;5317;49.048;8.468;2022-10-16T09:10:58;21.50;89.10
10538;DHT22;5317;49.048;8.468;2022-10-16T09:13:35;21.50;89.10
10538;DHT22;5317;49.048;8.468;2022-10-16T09:16:17;21.60;89.20
10538;DHT22;5317;49.048;8.468;2022-10-16T09:18:55;21.60;87.20
10538;DHT22;5317;49.048;8.468;2022-10-16T09:21:30;21.60;87.70
10538;DHT22;5317;49.048;8.468;2022-10-16T09:24:08;21.60;88.20
10538;DHT22;5317;49.048;8.468;2022-10-16T09:26:38;21.70;88.00
10538;DHT22;5317;49.048;8.468;2022-10-16T09:29:05;21.60;87.00
10538;DHT22;5317;49.048;8.468;2022-10-16T09:31:36;21.60;87.60
10538;DHT22;5317;49.048;8.468;2022-10-16T09:34:05;21.70;87.90
10538;DHT22;5317;49.048;8.468;2022-10-16T09:36:42;21.70;88.00
10538;DHT22;5317;49.048;8.468;2022-10-16T09:39:13;21.80;87.50
10538;DHT22;5317;49.048;8.468;2022-10-16T09:41:44;21.80;86.40
10538;DHT22;5317;49.048;8.468;2022-10-16T09:44:21;21.90;86.80
10538;DHT22;5317;49.048;8.468;2022-10-16T09:47:01;21.90;85.20
10538;DHT22;5317;49.048;8.468;2022-10-16T09:49:29;22.00;85.40
10538;DHT22;5317;49.048;8.468;2022-10-16T09:52:05;22.00;85.20
10538;DHT22;5317;49.048;8.468;2022-10-16T09:54:49;22.10;85.50
10538;DHT22;5317;49.048;8.468;2022-10-16T09:57:18;22.30;86.30
10538;DHT22;5317;49.048;8.468;2022-10-16T09:59:47;22.50;86.20
10538;DHT22;5317;49.048;8.468;2022-10-16T10:02:16;22.60;84.20
10538;DHT22;5317;49.048;8.468;2022-10-16T10:04:50;22.70;84.70
10538;DHT22;5317;49.048;8.468;2022-10-16T10:07:24;22.80;83.20
10538;DHT22;5317;49.048;8.468;2022-10-16T10:09:54;22.90;83.80
10538;DHT22;5317;49.048;8.468;2022-10-16T10:12:27;23.10;84.50
10538;DHT22;5317;49.048;8.468;2022-10-16T10:15:04;23.20;83.90
10538;DHT22;5317;49.048;8.468;2022-10-16T10:17:33;23.40;82.90
10538;DHT22;5317;49.048;8.468;2022-10-16T10:20:21;23.60;80.40
10538;DHT22;5317;49.048;8.468;2022-10-16T10:22:53;23.70;81.40
10538;DHT22;5317;49.048;8.468;2022-10-16T10:25:38;23.80;78.90
10538;DHT22;5317;49.048;8.468;2022-10-16T10:28:28;23.70;78.90
10538;DHT22;5317;49.048;8.468;2022-10-16T10:31:19;23.70;78.50
10538;DHT22;5317;49.048;8.468;2022-10-16T10:33:56;23.80;77.70
10538;DHT22;5317;49.048;8.468;2022-10-16T10:36:34;23.90;77.80
10538;DHT22;5317;49.048;8.468;2022-10-16T10:39:08;24.20;77.40
10538;DHT22;5317;49.048;8.468;2022-10-16T10:42:06;24.40;76.30
10538;DHT22;5317;49.048;8.468;2022-10-16T10:48:03;25.00;73.20
10538;DHT22;5317;49.048;8.468;2022-10-16T10:50:46;25.30;73.50
10538;DHT22;5317;49.048;8.468;2022-10-16T10:53:25;25.30;73.10
10538;DHT22;5317;49.048;8.468;2022-10-16T10:56:15;25.40;73.20
10538;DHT22;5317;49.048;8.468;2022-10-16T10:59:27;25.40;71.50
10538;DHT22;5317;49.048;8.468;2022-10-16T11:02:12;25.30;71.10
10538;DHT22;5317;49.048;8.468;2022-10-16T11:05:09;25.10;70.80
10538;DHT22;5317;49.048;8.468;2022-10-16T11:07:59;24.80;70.80
10538;DHT22;5317;49.048;8.468;2022-10-16T11:10:33;24.60;72.40
10538;DHT22;5317;49.048;8.468;2022-10-16T11:13:15;24.60;72.50
10538;DHT22;5317;49.048;8.468;2022-10-16T11:15:55;24.60;72.90
10538;DHT22;5317;49.048;8.468;2022-10-16T11:18:30;24.70;72.60
10538;DHT22;5317;49.048;8.468;2022-10-16T11:21:07;24.80;72.70
10538;DHT22;5317;49.048;8.468;2022-10-16T11:23:40;25.00;72.20
10538;DHT22;5317;49.048;8.468;2022-10-16T11:26:14;25.10;71.50
10538;DHT22;5317;49.048;8.468;2022-10-16T11:28:49;25.20;71.40
10538;DHT22;5317;49.048;8.468;2022-10-16T11:31:25;25.30;70.60
10538;DHT22;5317;49.048;8.468;2022-10-16T11:34:02;25.40;71.00
10538;DHT22;5317;49.048;8.468;2022-10-16T11:36:40;25.40;70.00
10538;DHT22;5317;49.048;8.468;2022-10-16T11:39:19;25.50;70.60
10538;DHT22;5317;49.048;8.468;2022-10-16T11:41:50;25.60;70.10
10538;DHT22;5317;49.048;8.468;2022-10-16T11:44:36;25.70;70.00
10538;DHT22;5317;49.048;8.468;2022-10-16T11:47:26;25.70;69.50
10538;DHT22;5317;49.048;8.468;2022-10-16T11:50:01;25.70;70.10
10538;DHT22;5317;49.048;8.468;2022-10-16T11:52:38;25.70;69.50
10538;DHT22;5317;49.048;8.468;2022-10-16T11:55:15;25.80;69.70
10538;DHT22;5317;49.048;8.468;2022-10-16T11:57:49;25.90;69.10
10538;DHT22;5317;49.048;8.468;2022-10-16T12:00:23;26.00;68.80
10538;DHT22;5317;49.048;8.468;2022-10-16T12:02:59;26.10;66.20
10538;DHT22;5317;49.048;8.468;2022-10-16T12:05:52;26.20;65.90
10538;DHT22;5317;49.048;8.468;2022-10-16T12:08:29;26.50;65.70
10538;DHT22;5317;49.048;8.468;2022-10-16T12:11:07;26.60;65.10
10538;DHT22;5317;49.048;8.468;2022-10-16T12:13:38;26.60;63.30
10538;DHT22;5317;49.048;8.468;2022-10-16T12:16:23;26.50;63.00
10538;DHT22;5317;49.048;8.468;2022-10-16T12:19:09;26.30;62.10
10538;DHT22;5317;49.048;8.468;2022-10-16T12:21:39;26.20;63.00
10538;DHT22;5317;49.048;8.468;2022-10-16T12:24:28;26.20;64.20
10538;DHT22;5317;49.048;8.468;2022-10-16T12:26:59;26.00;62.60
10538;DHT22;5317;49.048;8.468;2022-10-16T12:29:35;26.00;64.20
10538;DHT22;5317;49.048;8.468;2022-10-16T12:32:22;26.20;63.00
10538;DHT22;5317;49.048;8.468;2022-10-16T12:34:58;26.50;60.40
10538;DHT22;5317;49.048;8.468;2022-10-16T12:37:30;26.60;60.50
10538;DHT22;5317;49.048;8.468;2022-10-16T12:40:12;26.60;60.90
10538;DHT22;5317;49.048;8.468;2022-10-16T12:42:41;26.40;60.10
10538;DHT22;5317;49.048;8.468;2022-10-16T12:45:29;26.40;61.40
10538;DHT22;5317;49.048;8.468;2022-10-16T12:48:00;26.30;59.00
10538;DHT22;5317;49.048;8.468;2022-10-16T12:50:33;26.10;61.10
10538;DHT22;5317;49.048;8.468;2022-10-16T12:53:04;26.00;61.70
10538;DHT22;5317;49.048;8.468;2022-10-16T12:55:52;26.00;61.10
10538;DHT22;5317;49.048;8.468;2022-10-16T12:58:42;25.80;60.60
10538;DHT22;5317;49.048;8.468;2022-10-16T13:01:34;25.70;61.60
10538;DHT22;5317;49.048;8.468;2022-10-16T13:04:30;25.60;61.20
10538;DHT22;5317;49.048;8.468;2022-10-16T13:07:30;25.50;61.00
10538;DHT22;5317;49.048;8.468;2022-10-16T13:10:20;25.40;61.40
10538;DHT22;5317;49.048;8.468;2022-10-16T13:13:33;25.30;62.30
10538;DHT22;5317;49.048;8.468;2022-10-16T13:16:26;25.20;62.20
10538;DHT22;5317;49.048;8.468;2022-10-16T13:19:13;25.20;63.80
10538;DHT22;5317;49.048;8.468;2022-10-16T13:21:52;25.10;64.20
10538;DHT22;5317;49.048;8.468;2022-10-16T13:24:47;25.10;64.80
10538;DHT22;5317;49.048;8.468;2022-10-16T13:27:29;25.10;65.00
10538;DHT22;5317;49.048;8.468;2022-10-16T13:30:11;25.10;65.20
10538;DHT22;5317;49.048;8.468;2022-10-16T13:32:45;25.10;65.00
10538;DHT22;5317;49.048;8.468;2022-10-16T13:35:27;25.20;64.50
10538;DHT22;5317;49.048;8.468;2022-10-16T13:38:11;25.20;64.50
10538;DHT22;5317;49.048;8.468;2022-10-16T13:40:51;25.20;65.10
10538;DHT22;5317;49.048;8.468;2022-10-16T13:43:23;25.20;65.00
10538;DHT22;5317;49.048;8.468;2022-10-16T13:45:56;25.10;65.50
10538;DHT22;5317;49.048;8.468;2022-10-16T13:48:25;25.10;65.20
10538;DHT22;5317;49.048;8.468;2022-10-16T13:51:05;25.10;65.70
10538;DHT22;5317;49.048;8.468;2022-10-16T13:53:38;25.00;65.70
10538;DHT22;5317;49.048;8.468;2022-10-16T13:56:07;25.00;65.70
10538;DHT22;5317;49.048;8.468;2022-10-16T13:58:38;24.90;65.90
10538;DHT22;5317;49.048;8.468;2022-10-16T14:01:16;24.90;67.00
10538;DHT22;5317;49.048;8.468;2022-10-16T14:03:46;24.90;68.50
10538;DHT22;5317;49.048;8.468;2022-10-16T14:06:18;24.90;69.20
10538;DHT22;5317;49.048;8.468;2022-10-16T14:08:52;24.90;69.90
10538;DHT22;5317;49.048;8.468;2022-10-16T14:11:25;24.80;70.70
10538;DHT22;5317;49.048;8.468;2022-10-16T14:13:53;24.80;71.00
10538;DHT22;5317;49.048;8.468;2022-10-16T14:16:23;24.80;71.60
10538;DHT22;5317;49.048;8.468;2022-10-16T14:18:57;24.80;73.20
10538;DHT22;5317;49.048;8.468;2022-10-16T14:21:29;24.70;74.00
10538;DHT22;5317;49.048;8.468;2022-10-16T14:23:57;24.80;74.80
10538;DHT22;5317;49.048;8.468;2022-10-16T14:26:27;24.80;75.00
10538;DHT22;5317;49.048;8.468;2022-10-16T14:29:11;24.90;75.60
10538;DHT22;5317;49.048;8.468;2022-10-16T14:31:41;24.90;75.90
10538;DHT22;5317;49.048;8.468;2022-10-16T14:34:26;25.10;75.60
10538;DHT22;5317;49.048;8.468;2022-10-16T14:37:01;25.30;75.80
10538;DHT22;5317;49.048;8.468;2022-10-16T14:39:35;25.40;74.90
10538;DHT22;5317;49.048;8.468;2022-10-16T14:42:03;25.50;75.50
10538;DHT22;5317;49.048;8.468;2022-10-16T14:44:32;25.60;75.20
10538;DHT22;5317;49.048;8.468;2022-10-16T14:47:08;25.70;73.80
10538;DHT22;5317;49.048;8.468;2022-10-16T14:49:41;25.90;72.70
10538;DHT22;5317;49.048;8.468;2022-10-16T14:52:12;26.20;72.50
10538;DHT22;5317;49.048;8.468;2022-10-16T14:54:40;26.90;70.70
10538;DHT22;5317;49.048;8.468;2022-10-16T14:57:16;27.30;69.40
10538;DHT22;5317;49.048;8.468;2022-10-16T14:59:47;27.50;66.60
10538;DHT22;5317;49.048;8.468;2022-10-16T15:02:22;27.60;66.90
10538;DHT22;5317;49.048;8.468;2022-10-16T15:04:55;27.60;66.30
10538;DHT22;5317;49.048;8.468;2022-10-16T15:07:25;27.60;65.50
10538;DHT22;5317;49.048;8.468;2022-10-16T15:09:52;27.50;64.90
10538;DHT22;5317;49.048;8.468;2022-10-16T15:12:19;27.30;65.20
10538;DHT22;5317;49.048;8.468;2022-10-16T15:14:47;27.10;66.60
10538;DHT22;5317;49.048;8.468;2022-10-16T15:17:15;26.90;66.30
10538;DHT22;5317;49.048;8.468;2022-10-16T15:19:42;26.70;66.30
10538;DHT22;5317;49.048;8.468;2022-10-16T15:22:10;26.60;66.90
10538;DHT22;5317;49.048;8.468;2022-10-16T15:24:39;26.40;67.80
10538;DHT22;5317;49.048;8.468;2022-10-16T15:27:06;26.30;68.90
10538;DHT22;5317;49.048;8.468;2022-10-16T15:29:34;26.20;69.70
10538;DHT22;5317;49.048;8.468;2022-10-16T15:32:01;26.10;70.20
10538;DHT22;5317;49.048;8.468;2022-10-16T15:34:29;26.00;70.70
10538;DHT22;5317;49.048;8.468;2022-10-16T15:36:57;25.90;71.10
10538;DHT22;5317;49.048;8.468;2022-10-16T15:39:26;25.80;71.50
10538;DHT22;5317;49.048;8.468;2022-10-16T15:41:55;25.70;72.10
10538;DHT22;5317;49.048;8.468;2022-10-16T15:44:22;25.60;72.30
10538;DHT22;5317;49.048;8.468;2022-10-16T15:46:54;25.50;72.90
10538;DHT22;5317;49.048;8.468;2022-10-16T15:49:22;25.40;73.20
10538;DHT22;5317;49.048;8.468;2022-10-16T15:51:49;25.20;73.90
10538;DHT22;5317;49.048;8.468;2022-10-16T15:54:18;25.20;73.30
10538;DHT22;5317;49.048;8.468;2022-10-16T15:56:48;25.10;73.90
10538;DHT22;5317;49.048;8.468;2022-10-16T15:59:17;25.10;74.50
10538;DHT22;5317;49.048;8.468;2022-10-16T16:01:45;25.10;74.80
10538;DHT22;5317;49.048;8.468;2022-10-16T16:04:13;25.10;75.00
10538;DHT22;5317;49.048;8.468;2022-10-16T16:06:40;25.10;75.00
10538;DHT22;5317;49.048;8.468;2022-10-16T16:09:10;25.10;75.30
10538;DHT22;5317;49.048;8.468;2022-10-16T16:11:38;25.00;75.50
10538;DHT22;5317;49.048;8.468;2022-10-16T16:14:06;24.90;76.00
10538;DHT22;5317;49.048;8.468;2022-10-16T16:16:36;24.80;76.10
10538;DHT22;5317;49.048;8.468;2022-10-16T16:19:04;24.70;76.60
10538;DHT22;5317;49.048;8.468;2022-10-16T16:21:33;24.60;76.60
10538;DHT22;5317;49.048;8.468;2022-10-16T16:24:00;24.40;76.80
10538;DHT22;5317;49.048;8.468;2022-10-16T16:26:34;24.40;77.50